sensor_id;sensor_type;location;lat;lon;timestamp;P1;durP1;ratioP1;P2;durP2;ratioP2
7375;SDS011;3728;42.266;24.944;2022-08-07T00:00:22;7.07;;;6.47;;
7375;SDS011;3728;42.266;24.944;2022-08-07T00:02:50;8.85;;;6.60;;
7375;SDS011;3728;42.266;24.944;2022-08-07T00:05:19;8.43;;;6.78;;
7375;SDS011;3728;42.266;24.944;2022-08-07T00:07:49;6.40;;;5.88;;
7375;SDS011;3728;42.266;24.944;2022-08-07T00:10:27;12.40;;;6.85;;
7375;SDS011;3728;42.266;24.944;2022-08-07T00:12:57;7.57;;;6.63;;
7375;SDS011;3728;42.266;24.944;2022-08-07T00:15:47;6.63;;;6.03;;
7375;SDS011;3728;42.266;24.944;2022-08-07T00:18:18;6.90;;;6.15;;
7375;SDS011;3728;42.266;24.944;2022-08-07T00:20:51;6.63;;;6.03;;
7375;SDS011;3728;42.266;24.944;2022-08-07T00:23:20;7.00;;;6.30;;
7375;SDS011;3728;42.266;24.944;2022-08-07T00:25:47;7.28;;;6.60;;
7375;SDS011;3728;42.266;24.944;2022-08-07T00:28:28;7.22;;;6.63;;
7375;SDS011;3728;42.266;24.944;2022-08-07T00:31:03;9.57;;;6.90;;
7375;SDS011;3728;42.266;24.944;2022-08-07T00:33:38;7.78;;;7.05;;
7375;SDS011;3728;42.266;24.944;2022-08-07T00:36:07;8.00;;;7.25;;
7375;SDS011;3728;42.266;24.944;2022-08-07T00:38:35;8.35;;;7.55;;
7375;SDS011;3728;42.266;24.944;2022-08-07T00:41:07;8.38;;;7.63;;
7375;SDS011;3728;42.266;24.944;2022-08-07T00:43:40;8.43;;;7.50;;
7375;SDS011;3728;42.266;24.944;2022-08-07T00:46:28;10.27;;;8.10;;
7375;SDS011;3728;42.266;24.944;2022-08-07T00:48:59;9.23;;;8.00;;
7375;SDS011;3728;42.266;24.944;2022-08-07T00:51:31;7.37;;;6.67;;
7375;SDS011;3728;42.266;24.944;2022-08-07T00:54:19;8.20;;;7.43;;
7375;SDS011;3728;42.266;24.944;2022-08-07T00:56:48;8.90;;;7.03;;
7375;SDS011;3728;42.266;24.944;2022-08-07T00:59:17;8.47;;;7.47;;
7375;SDS011;3728;42.266;24.944;2022-08-07T01:01:57;9.83;;;8.07;;
7375;SDS011;3728;42.266;24.944;2022-08-07T01:04:29;9.07;;;7.63;;
7375;SDS011;3728;42.266;24.944;2022-08-07T01:06:59;8.13;;;7.37;;
7375;SDS011;3728;42.266;24.944;2022-08-07T01:09:28;7.73;;;7.13;;
7375;SDS011;3728;42.266;24.944;2022-08-07T01:12:17;10.13;;;7.13;;
7375;SDS011;3728;42.266;24.944;2022-08-07T01:14:56;8.23;;;7.50;;
7375;SDS011;3728;42.266;24.944;2022-08-07T01:17:29;8.10;;;7.10;;
7375;SDS011;3728;42.266;24.944;2022-08-07T01:20:05;7.00;;;6.40;;
7375;SDS011;3728;42.266;24.944;2022-08-07T01:22:42;7.80;;;7.00;;
7375;SDS011;3728;42.266;24.944;2022-08-07T01:25:20;8.03;;;7.30;;
7375;SDS011;3728;42.266;24.944;2022-08-07T01:28:07;9.60;;;8.60;;
7375;SDS011;3728;42.266;24.944;2022-08-07T01:30:37;8.93;;;8.03;;
7375;SDS011;3728;42.266;24.944;2022-08-07T01:33:08;8.93;;;7.70;;
7375;SDS011;3728;42.266;24.944;2022-08-07T01:35:36;7.87;;;7.10;;
7375;SDS011;3728;42.266;24.944;2022-08-07T01:38:19;7.30;;;6.70;;
7375;SDS011;3728;42.266;24.944;2022-08-07T01:40:53;10.83;;;7.20;;
7375;SDS011;3728;42.266;24.944;2022-08-07T01:43:24;8.00;;;7.17;;
7375;SDS011;3728;42.266;24.944;2022-08-07T01:46:03;7.87;;;7.17;;
7375;SDS011;3728;42.266;24.944;2022-08-07T01:48:39;8.10;;;7.40;;
7375;SDS011;3728;42.266;24.944;2022-08-07T01:51:22;7.87;;;7.13;;
7375;SDS011;3728;42.266;24.944;2022-08-07T01:54:11;9.30;;;7.27;;
7375;SDS011;3728;42.266;24.944;2022-08-07T01:57:01;9.80;;;7.33;;
7375;SDS011;3728;42.266;24.944;2022-08-07T01:59:39;8.97;;;7.87;;
7375;SDS011;3728;42.266;24.944;2022-08-07T02:02:16;8.37;;;7.67;;
7375;SDS011;3728;42.266;24.944;2022-08-07T02:05:14;8.73;;;7.90;;
7375;SDS011;3728;42.266;24.944;2022-08-07T02:08:09;8.00;;;7.20;;
7375;SDS011;3728;42.266;24.944;2022-08-07T02:10:40;9.67;;;8.50;;
7375;SDS011;3728;42.266;24.944;2022-08-07T02:13:19;8.60;;;7.80;;
7375;SDS011;3728;42.266;24.944;2022-08-07T02:16:10;8.20;;;7.50;;
7375;SDS011;3728;42.266;24.944;2022-08-07T02:18:39;8.67;;;7.57;;
7375;SDS011;3728;42.266;24.944;2022-08-07T02:21:12;7.83;;;7.13;;
7375;SDS011;3728;42.266;24.944;2022-08-07T02:23:44;8.30;;;7.60;;
7375;SDS011;3728;42.266;24.944;2022-08-07T02:26:15;8.70;;;7.90;;
7375;SDS011;3728;42.266;24.944;2022-08-07T02:29:04;10.20;;;7.90;;
7375;SDS011;3728;42.266;24.944;2022-08-07T02:31:40;8.70;;;7.90;;
7375;SDS011;3728;42.266;24.944;2022-08-07T02:34:13;8.97;;;8.17;;
7375;SDS011;3728;42.266;24.944;2022-08-07T02:36:48;10.03;;;7.97;;
7375;SDS011;3728;42.266;24.944;2022-08-07T02:39:16;10.40;;;8.87;;
7375;SDS011;3728;42.266;24.944;2022-08-07T02:42:06;12.53;;;8.80;;
7375;SDS011;3728;42.266;24.944;2022-08-07T02:44:36;9.93;;;8.43;;
7375;SDS011;3728;42.266;24.944;2022-08-07T02:47:17;9.10;;;8.30;;
7375;SDS011;3728;42.266;24.944;2022-08-07T02:49:52;9.27;;;8.13;;
7375;SDS011;3728;42.266;24.944;2022-08-07T02:52:30;8.90;;;8.10;;
7375;SDS011;3728;42.266;24.944;2022-08-07T02:55:06;9.40;;;8.40;;
7375;SDS011;3728;42.266;24.944;2022-08-07T02:57:54;9.07;;;7.63;;
7375;SDS011;3728;42.266;24.944;2022-08-07T03:00:25;9.33;;;7.97;;
7375;SDS011;3728;42.266;24.944;2022-08-07T03:02:56;8.67;;;7.87;;
7375;SDS011;3728;42.266;24.944;2022-08-07T03:05:32;8.57;;;7.77;;
7375;SDS011;3728;42.266;24.944;2022-08-07T03:08:07;10.70;;;8.77;;
7375;SDS011;3728;42.266;24.944;2022-08-07T03:10:40;8.87;;;8.07;;
7375;SDS011;3728;42.266;24.944;2022-08-07T03:13:15;11.33;;;8.30;;
7375;SDS011;3728;42.266;24.944;2022-08-07T03:15:46;10.67;;;8.57;;
7375;SDS011;3728;42.266;24.944;2022-08-07T03:18:28;10.40;;;8.77;;
7375;SDS011;3728;42.266;24.944;2022-08-07T03:21:04;13.30;;;8.73;;
7375;SDS011;3728;42.266;24.944;2022-08-07T03:23:37;12.63;;;9.20;;
7375;SDS011;3728;42.266;24.944;2022-08-07T03:26:29;10.57;;;9.07;;
7375;SDS011;3728;42.266;24.944;2022-08-07T03:29:04;10.77;;;9.20;;
7375;SDS011;3728;42.266;24.944;2022-08-07T03:31:39;10.00;;;8.97;;
7375;SDS011;3728;42.266;24.944;2022-08-07T03:34:13;10.63;;;9.57;;
7375;SDS011;3728;42.266;24.944;2022-08-07T03:36:50;10.27;;;9.20;;
7375;SDS011;3728;42.266;24.944;2022-08-07T03:39:21;11.57;;;9.10;;
7375;SDS011;3728;42.266;24.944;2022-08-07T03:42:10;12.77;;;10.00;;
7375;SDS011;3728;42.266;24.944;2022-08-07T03:44:39;12.80;;;10.13;;
7375;SDS011;3728;42.266;24.944;2022-08-07T03:47:12;10.70;;;9.50;;
7375;SDS011;3728;42.266;24.944;2022-08-07T03:49:44;14.43;;;10.03;;
7375;SDS011;3728;42.266;24.944;2022-08-07T03:52:21;15.87;;;9.60;;
7375;SDS011;3728;42.266;24.944;2022-08-07T03:54:59;12.83;;;9.30;;
7375;SDS011;3728;42.266;24.944;2022-08-07T03:57:36;10.57;;;9.50;;
7375;SDS011;3728;42.266;24.944;2022-08-07T04:00:29;14.03;;;9.23;;
7375;SDS011;3728;42.266;24.944;2022-08-07T04:03:01;10.87;;;8.90;;
7375;SDS011;3728;42.266;24.944;2022-08-07T04:05:35;13.33;;;10.60;;
7375;SDS011;3728;42.266;24.944;2022-08-07T04:08:13;10.80;;;9.70;;
7375;SDS011;3728;42.266;24.944;2022-08-07T04:10:45;14.00;;;10.97;;
7375;SDS011;3728;42.266;24.944;2022-08-07T04:13:35;11.50;;;10.20;;
7375;SDS011;3728;42.266;24.944;2022-08-07T04:16:24;9.90;;;8.83;;
7375;SDS011;3728;42.266;24.944;2022-08-07T04:19:00;10.07;;;9.10;;
7375;SDS011;3728;42.266;24.944;2022-08-07T04:21:38;10.00;;;8.73;;
7375;SDS011;3728;42.266;24.944;2022-08-07T04:24:27;17.67;;;9.90;;
7375;SDS011;3728;42.266;24.944;2022-08-07T04:27:06;11.37;;;9.63;;
7375;SDS011;3728;42.266;24.944;2022-08-07T04:29:53;18.13;;;10.20;;
7375;SDS011;3728;42.266;24.944;2022-08-07T04:32:42;15.40;;;9.67;;
7375;SDS011;3728;42.266;24.944;2022-08-07T04:35:15;10.10;;;9.07;;
7375;SDS011;3728;42.266;24.944;2022-08-07T04:37:44;14.37;;;8.57;;
7375;SDS011;3728;42.266;24.944;2022-08-07T04:40:31;12.00;;;8.93;;
7375;SDS011;3728;42.266;24.944;2022-08-07T04:43:00;10.93;;;8.63;;
7375;SDS011;3728;42.266;24.944;2022-08-07T04:48:32;10.07;;;8.17;;
7375;SDS011;3728;42.266;24.944;2022-08-07T04:51:15;9.30;;;8.40;;
7375;SDS011;3728;42.266;24.944;2022-08-07T05:00:17;11.10;;;8.47;;
7375;SDS011;3728;42.266;24.944;2022-08-07T05:08:49;10.97;;;8.50;;
7375;SDS011;3728;42.266;24.944;2022-08-07T05:11:39;11.43;;;9.63;;
7375;SDS011;3728;42.266;24.944;2022-08-07T05:14:27;14.57;;;10.07;;
7375;SDS011;3728;42.266;24.944;2022-08-07T05:17:24;11.50;;;10.00;;
7375;SDS011;3728;42.266;24.944;2022-08-07T05:20:16;14.07;;;9.47;;
7375;SDS011;3728;42.266;24.944;2022-08-07T05:22:57;16.27;;;9.60;;
7375;SDS011;3728;42.266;24.944;2022-08-07T05:25:28;19.43;;;10.07;;
7375;SDS011;3728;42.266;24.944;2022-08-07T05:28:19;14.13;;;8.90;;
7375;SDS011;3728;42.266;24.944;2022-08-07T05:30:52;14.32;;;9.43;;
7375;SDS011;3728;42.266;24.944;2022-08-07T05:33:26;15.60;;;8.80;;
7375;SDS011;3728;42.266;24.944;2022-08-07T05:35:55;12.57;;;9.30;;
7375;SDS011;3728;42.266;24.944;2022-08-07T05:38:25;21.38;;;9.20;;
7375;SDS011;3728;42.266;24.944;2022-08-07T05:41:14;12.33;;;8.60;;
7375;SDS011;3728;42.266;24.944;2022-08-07T05:43:48;13.27;;;8.10;;
7375;SDS011;3728;42.266;24.944;2022-08-07T05:46:38;11.00;;;8.30;;
7375;SDS011;3728;42.266;24.944;2022-08-07T05:49:09;11.53;;;8.60;;
7375;SDS011;3728;42.266;24.944;2022-08-07T05:51:42;8.35;;;7.32;;
7375;SDS011;3728;42.266;24.944;2022-08-07T05:54:16;9.68;;;8.15;;
7375;SDS011;3728;42.266;24.944;2022-08-07T05:57:05;10.73;;;7.77;;
7375;SDS011;3728;42.266;24.944;2022-08-07T05:59:37;10.25;;;7.97;;
7375;SDS011;3728;42.266;24.944;2022-08-07T06:02:28;8.45;;;7.50;;
7375;SDS011;3728;42.266;24.944;2022-08-07T06:05:09;9.32;;;7.80;;
7375;SDS011;3728;42.266;24.944;2022-08-07T06:07:45;9.35;;;7.68;;
7375;SDS011;3728;42.266;24.944;2022-08-07T06:10:34;7.85;;;7.15;;
7375;SDS011;3728;42.266;24.944;2022-08-07T06:13:05;9.65;;;7.45;;
7375;SDS011;3728;42.266;24.944;2022-08-07T06:15:39;11.30;;;7.07;;
7375;SDS011;3728;42.266;24.944;2022-08-07T06:18:15;10.27;;;6.38;;
7375;SDS011;3728;42.266;24.944;2022-08-07T06:20:44;8.13;;;6.05;;
7375;SDS011;3728;42.266;24.944;2022-08-07T06:23:33;7.90;;;6.90;;
7375;SDS011;3728;42.266;24.944;2022-08-07T06:26:22;8.32;;;5.75;;
7375;SDS011;3728;42.266;24.944;2022-08-07T06:28:55;12.05;;;6.55;;
7375;SDS011;3728;42.266;24.944;2022-08-07T06:31:29;7.78;;;6.32;;
7375;SDS011;3728;42.266;24.944;2022-08-07T06:34:15;9.07;;;6.72;;
7375;SDS011;3728;42.266;24.944;2022-08-07T06:36:47;8.00;;;6.60;;
7375;SDS011;3728;42.266;24.944;2022-08-07T06:39:22;7.43;;;5.72;;
7375;SDS011;3728;42.266;24.944;2022-08-07T06:42:18;10.23;;;6.15;;
7375;SDS011;3728;42.266;24.944;2022-08-07T06:45:08;7.15;;;6.00;;
7375;SDS011;3728;42.266;24.944;2022-08-07T06:47:50;8.05;;;5.80;;
7375;SDS011;3728;42.266;24.944;2022-08-07T06:50:45;7.55;;;6.32;;
7375;SDS011;3728;42.266;24.944;2022-08-07T06:53:17;8.25;;;6.15;;
7375;SDS011;3728;42.266;24.944;2022-08-07T06:56:09;10.60;;;6.13;;
7375;SDS011;3728;42.266;24.944;2022-08-07T06:58:43;8.88;;;6.30;;
7375;SDS011;3728;42.266;24.944;2022-08-07T07:01:34;7.32;;;6.63;;
7375;SDS011;3728;42.266;24.944;2022-08-07T07:04:14;11.77;;;7.40;;
7375;SDS011;3728;42.266;24.944;2022-08-07T07:07:00;8.65;;;5.97;;
7375;SDS011;3728;42.266;24.944;2022-08-07T07:09:48;10.98;;;6.25;;
7375;SDS011;3728;42.266;24.944;2022-08-07T07:12:29;7.60;;;5.40;;
7375;SDS011;3728;42.266;24.944;2022-08-07T07:15:16;6.55;;;5.88;;
7375;SDS011;3728;42.266;24.944;2022-08-07T07:23:52;5.78;;;5.25;;
7375;SDS011;3728;42.266;24.944;2022-08-07T07:26:37;7.93;;;5.38;;
7375;SDS011;3728;42.266;24.944;2022-08-07T07:29:18;7.55;;;5.68;;
7375;SDS011;3728;42.266;24.944;2022-08-07T07:32:10;10.80;;;6.00;;
7375;SDS011;3728;42.266;24.944;2022-08-07T07:34:41;5.78;;;5.13;;
7375;SDS011;3728;42.266;24.944;2022-08-07T07:37:14;5.85;;;5.30;;
7375;SDS011;3728;42.266;24.944;2022-08-07T07:40:04;7.55;;;5.32;;
7375;SDS011;3728;42.266;24.944;2022-08-07T07:43:00;6.07;;;5.57;;
7375;SDS011;3728;42.266;24.944;2022-08-07T07:45:44;7.30;;;5.35;;
7375;SDS011;3728;42.266;24.944;2022-08-07T07:48:35;6.10;;;5.45;;
7375;SDS011;3728;42.266;24.944;2022-08-07T07:51:10;6.45;;;5.60;;
7375;SDS011;3728;42.266;24.944;2022-08-07T07:53:42;6.03;;;5.45;;
7375;SDS011;3728;42.266;24.944;2022-08-07T07:56:18;6.45;;;5.40;;
7375;SDS011;3728;42.266;24.944;2022-08-07T07:58:55;5.53;;;5.00;;
7375;SDS011;3728;42.266;24.944;2022-08-07T08:01:32;5.05;;;4.65;;
7375;SDS011;3728;42.266;24.944;2022-08-07T08:04:21;6.63;;;5.88;;
7375;SDS011;3728;42.266;24.944;2022-08-07T08:06:51;6.88;;;5.30;;
7375;SDS011;3728;42.266;24.944;2022-08-07T08:09:22;6.32;;;4.57;;
7375;SDS011;3728;42.266;24.944;2022-08-07T08:11:55;7.30;;;4.68;;
7375;SDS011;3728;42.266;24.944;2022-08-07T08:14:32;6.85;;;5.07;;
7375;SDS011;3728;42.266;24.944;2022-08-07T08:17:03;7.15;;;5.10;;
7375;SDS011;3728;42.266;24.944;2022-08-07T08:20:03;8.00;;;5.15;;
7375;SDS011;3728;42.266;24.944;2022-08-07T08:22:49;7.05;;;4.97;;
7375;SDS011;3728;42.266;24.944;2022-08-07T08:25:39;4.40;;;4.00;;
7375;SDS011;3728;42.266;24.944;2022-08-07T08:28:34;11.25;;;5.78;;
7375;SDS011;3728;42.266;24.944;2022-08-07T08:31:11;10.23;;;5.32;;
7375;SDS011;3728;42.266;24.944;2022-08-07T08:34:02;6.43;;;5.07;;
7375;SDS011;3728;42.266;24.944;2022-08-07T08:36:34;7.70;;;5.38;;
7375;SDS011;3728;42.266;24.944;2022-08-07T08:39:03;5.38;;;4.28;;
7375;SDS011;3728;42.266;24.944;2022-08-07T08:41:52;12.60;;;4.00;;
7375;SDS011;3728;42.266;24.944;2022-08-07T08:44:28;5.95;;;3.30;;
7375;SDS011;3728;42.266;24.944;2022-08-07T08:47:24;4.78;;;3.38;;
7375;SDS011;3728;42.266;24.944;2022-08-07T08:50:11;4.47;;;3.40;;
7375;SDS011;3728;42.266;24.944;2022-08-07T08:56:01;5.75;;;3.67;;
7375;SDS011;3728;42.266;24.944;2022-08-07T08:58:35;4.57;;;4.07;;
7375;SDS011;3728;42.266;24.944;2022-08-07T09:01:08;10.77;;;5.30;;
7375;SDS011;3728;42.266;24.944;2022-08-07T09:04:06;3.33;;;3.03;;
7375;SDS011;3728;42.266;24.944;2022-08-07T09:06:51;3.60;;;3.30;;
7375;SDS011;3728;42.266;24.944;2022-08-07T09:12:31;3.90;;;3.45;;
7375;SDS011;3728;42.266;24.944;2022-08-07T09:30:57;3.78;;;2.95;;
7375;SDS011;3728;42.266;24.944;2022-08-07T09:36:33;3.40;;;2.95;;
7375;SDS011;3728;42.266;24.944;2022-08-07T09:51:49;3.72;;;2.80;;
7375;SDS011;3728;42.266;24.944;2022-08-07T09:54:45;6.07;;;3.20;;
7375;SDS011;3728;42.266;24.944;2022-08-07T09:57:23;6.78;;;3.05;;
7375;SDS011;3728;42.266;24.944;2022-08-07T10:00:08;5.00;;;2.70;;
7375;SDS011;3728;42.266;24.944;2022-08-07T10:12:04;6.25;;;3.00;;
7375;SDS011;3728;42.266;24.944;2022-08-07T10:35:56;11.00;;;4.97;;
7375;SDS011;3728;42.266;24.944;2022-08-07T10:39:17;3.47;;;3.00;;
7375;SDS011;3728;42.266;24.944;2022-08-07T10:51:46;7.80;;;2.80;;
7375;SDS011;3728;42.266;24.944;2022-08-07T10:54:43;4.88;;;2.58;;
7375;SDS011;3728;42.266;24.944;2022-08-07T10:57:45;6.47;;;2.95;;
7375;SDS011;3728;42.266;24.944;2022-08-07T11:00:23;2.80;;;2.60;;
7375;SDS011;3728;42.266;24.944;2022-08-07T11:03:16;7.82;;;2.83;;
7375;SDS011;3728;42.266;24.944;2022-08-07T11:11:23;9.50;;;3.45;;
7375;SDS011;3728;42.266;24.944;2022-08-07T11:17:24;3.40;;;2.90;;
7375;SDS011;3728;42.266;24.944;2022-08-07T11:20:21;4.97;;;3.28;;
7375;SDS011;3728;42.266;24.944;2022-08-07T11:29:20;30.23;;;4.60;;
7375;SDS011;3728;42.266;24.944;2022-08-07T11:32:14;5.40;;;3.00;;
7375;SDS011;3728;42.266;24.944;2022-08-07T11:34:54;3.88;;;3.45;;
7375;SDS011;3728;42.266;24.944;2022-08-07T11:43:25;6.55;;;3.60;;
7375;SDS011;3728;42.266;24.944;2022-08-07T11:58:17;9.60;;;4.20;;
7375;SDS011;3728;42.266;24.944;2022-08-07T12:03:59;13.52;;;4.82;;
7375;SDS011;3728;42.266;24.944;2022-08-07T12:06:58;6.35;;;3.92;;
7375;SDS011;3728;42.266;24.944;2022-08-07T12:09:59;9.40;;;4.25;;
7375;SDS011;3728;42.266;24.944;2022-08-07T12:12:34;12.23;;;4.60;;
7375;SDS011;3728;42.266;24.944;2022-08-07T12:15:12;17.38;;;5.07;;
7375;SDS011;3728;42.266;24.944;2022-08-07T12:18:22;14.88;;;4.32;;
7375;SDS011;3728;42.266;24.944;2022-08-07T12:24:32;9.68;;;4.35;;
7375;SDS011;3728;42.266;24.944;2022-08-07T12:27:09;10.70;;;5.15;;
7375;SDS011;3728;42.266;24.944;2022-08-07T12:29:45;9.85;;;4.80;;
7375;SDS011;3728;42.266;24.944;2022-08-07T12:35:11;9.65;;;5.00;;
7375;SDS011;3728;42.266;24.944;2022-08-07T12:37:40;15.38;;;4.85;;
7375;SDS011;3728;42.266;24.944;2022-08-07T12:40:33;7.40;;;5.20;;
7375;SDS011;3728;42.266;24.944;2022-08-07T12:43:15;5.63;;;5.07;;
7375;SDS011;3728;42.266;24.944;2022-08-07T12:52:10;9.02;;;5.50;;
7375;SDS011;3728;42.266;24.944;2022-08-07T12:57:36;6.93;;;5.03;;
7375;SDS011;3728;42.266;24.944;2022-08-07T13:12:52;7.05;;;5.57;;
7375;SDS011;3728;42.266;24.944;2022-08-07T13:24:01;9.85;;;5.88;;
7375;SDS011;3728;42.266;24.944;2022-08-07T13:27:03;10.20;;;5.28;;
7375;SDS011;3728;42.266;24.944;2022-08-07T13:32:17;6.43;;;5.30;;
7375;SDS011;3728;42.266;24.944;2022-08-07T13:35:09;8.02;;;5.38;;
7375;SDS011;3728;42.266;24.944;2022-08-07T13:37:56;7.22;;;5.15;;
7375;SDS011;3728;42.266;24.944;2022-08-07T13:43:41;5.30;;;4.88;;
7375;SDS011;3728;42.266;24.944;2022-08-07T13:46:21;6.28;;;5.25;;
7375;SDS011;3728;42.266;24.944;2022-08-07T13:49:16;6.65;;;5.30;;
7375;SDS011;3728;42.266;24.944;2022-08-07T13:52:09;8.07;;;5.60;;
7375;SDS011;3728;42.266;24.944;2022-08-07T13:55:05;9.05;;;5.78;;
7375;SDS011;3728;42.266;24.944;2022-08-07T13:58:02;5.85;;;5.32;;
7375;SDS011;3728;42.266;24.944;2022-08-07T14:01:00;6.50;;;5.80;;
7375;SDS011;3728;42.266;24.944;2022-08-07T14:03:47;9.32;;;6.15;;
7375;SDS011;3728;42.266;24.944;2022-08-07T14:06:39;7.20;;;6.28;;
7375;SDS011;3728;42.266;24.944;2022-08-07T14:09:15;12.88;;;5.95;;
7375;SDS011;3728;42.266;24.944;2022-08-07T14:12:07;6.28;;;5.65;;
7375;SDS011;3728;42.266;24.944;2022-08-07T14:14:50;7.32;;;5.55;;
7375;SDS011;3728;42.266;24.944;2022-08-07T14:17:21;7.57;;;4.60;;
7375;SDS011;3728;42.266;24.944;2022-08-07T14:20:15;7.88;;;4.53;;
7375;SDS011;3728;42.266;24.944;2022-08-07T14:23:25;5.00;;;4.15;;
7375;SDS011;3728;42.266;24.944;2022-08-07T14:26:16;9.32;;;4.45;;
7375;SDS011;3728;42.266;24.944;2022-08-07T14:28:57;6.65;;;4.20;;
7375;SDS011;3728;42.266;24.944;2022-08-07T14:31:36;5.43;;;4.75;;
7375;SDS011;3728;42.266;24.944;2022-08-07T14:34:25;5.57;;;4.97;;
7375;SDS011;3728;42.266;24.944;2022-08-07T14:36:59;5.82;;;4.30;;
7375;SDS011;3728;42.266;24.944;2022-08-07T14:39:29;10.02;;;5.00;;
7375;SDS011;3728;42.266;24.944;2022-08-07T14:42:26;7.25;;;4.65;;
7375;SDS011;3728;42.266;24.944;2022-08-07T14:44:58;5.55;;;4.40;;
7375;SDS011;3728;42.266;24.944;2022-08-07T14:47:48;9.23;;;4.72;;
7375;SDS011;3728;42.266;24.944;2022-08-07T14:50:24;7.45;;;4.88;;
7375;SDS011;3728;42.266;24.944;2022-08-07T14:53:02;5.90;;;4.07;;
7375;SDS011;3728;42.266;24.944;2022-08-07T14:55:35;6.00;;;4.63;;
7375;SDS011;3728;42.266;24.944;2022-08-07T14:58:26;7.15;;;4.35;;
7375;SDS011;3728;42.266;24.944;2022-08-07T15:00:58;6.13;;;4.28;;
7375;SDS011;3728;42.266;24.944;2022-08-07T15:03:48;5.20;;;4.55;;
7375;SDS011;3728;42.266;24.944;2022-08-07T15:06:22;4.10;;;3.80;;
7375;SDS011;3728;42.266;24.944;2022-08-07T15:08:51;5.43;;;3.78;;
7375;SDS011;3728;42.266;24.944;2022-08-07T15:11:23;8.70;;;3.67;;
7375;SDS011;3728;42.266;24.944;2022-08-07T15:14:14;3.90;;;3.50;;
7375;SDS011;3728;42.266;24.944;2022-08-07T15:17:01;5.93;;;3.75;;
7375;SDS011;3728;42.266;24.944;2022-08-07T15:19:37;9.23;;;4.07;;
7375;SDS011;3728;42.266;24.944;2022-08-07T15:22:45;4.47;;;3.50;;
7375;SDS011;3728;42.266;24.944;2022-08-07T15:25:22;3.70;;;3.40;;
7375;SDS011;3728;42.266;24.944;2022-08-07T15:28:04;3.50;;;3.20;;
7375;SDS011;3728;42.266;24.944;2022-08-07T15:31:04;5.53;;;3.38;;
7375;SDS011;3728;42.266;24.944;2022-08-07T15:34:02;6.10;;;3.50;;
7375;SDS011;3728;42.266;24.944;2022-08-07T15:36:40;3.47;;;3.25;;
7375;SDS011;3728;42.266;24.944;2022-08-07T15:39:28;6.60;;;2.80;;
7375;SDS011;3728;42.266;24.944;2022-08-07T15:45:34;4.60;;;2.65;;
7375;SDS011;3728;42.266;24.944;2022-08-07T15:48:31;3.00;;;2.70;;
7375;SDS011;3728;42.266;24.944;2022-08-07T15:51:21;3.58;;;3.00;;
7375;SDS011;3728;42.266;24.944;2022-08-07T15:54:11;5.20;;;3.10;;
7375;SDS011;3728;42.266;24.944;2022-08-07T15:56:41;3.22;;;2.92;;
7375;SDS011;3728;42.266;24.944;2022-08-07T15:59:13;3.25;;;2.95;;
7375;SDS011;3728;42.266;24.944;2022-08-07T16:02:05;4.53;;;3.42;;
7375;SDS011;3728;42.266;24.944;2022-08-07T16:04:34;4.20;;;3.13;;
7375;SDS011;3728;42.266;24.944;2022-08-07T16:07:04;5.07;;;3.35;;
7375;SDS011;3728;42.266;24.944;2022-08-07T16:32:37;5.47;;;3.75;;
7375;SDS011;3728;42.266;24.944;2022-08-07T16:35:22;6.47;;;4.10;;
7375;SDS011;3728;42.266;24.944;2022-08-07T16:44:25;10.07;;;5.05;;
7375;SDS011;3728;42.266;24.944;2022-08-07T17:08:08;6.72;;;4.97;;
7375;SDS011;3728;42.266;24.944;2022-08-07T17:13:32;7.78;;;5.03;;
7375;SDS011;3728;42.266;24.944;2022-08-07T17:16:32;5.68;;;4.90;;
7375;SDS011;3728;42.266;24.944;2022-08-07T17:22:29;7.93;;;5.38;;
7375;SDS011;3728;42.266;24.944;2022-08-07T17:25:18;6.38;;;4.93;;
7375;SDS011;3728;42.266;24.944;2022-08-07T17:28:18;7.25;;;4.80;;
7375;SDS011;3728;42.266;24.944;2022-08-07T17:34:34;5.65;;;4.70;;
7375;SDS011;3728;42.266;24.944;2022-08-07T17:37:29;11.93;;;5.15;;
7375;SDS011;3728;42.266;24.944;2022-08-07T17:43:10;4.60;;;4.20;;
7375;SDS011;3728;42.266;24.944;2022-08-07T17:45:49;9.23;;;4.60;;
7375;SDS011;3728;42.266;24.944;2022-08-07T17:48:28;7.38;;;4.43;;
7375;SDS011;3728;42.266;24.944;2022-08-07T17:53:56;7.85;;;4.50;;
7375;SDS011;3728;42.266;24.944;2022-08-07T17:56:37;5.63;;;4.30;;
7375;SDS011;3728;42.266;24.944;2022-08-07T17:59:19;6.93;;;4.45;;
7375;SDS011;3728;42.266;24.944;2022-08-07T18:17:09;6.75;;;5.18;;
7375;SDS011;3728;42.266;24.944;2022-08-07T18:20:13;7.13;;;4.32;;
7375;SDS011;3728;42.266;24.944;2022-08-07T18:23:06;6.30;;;4.63;;
7375;SDS011;3728;42.266;24.944;2022-08-07T18:25:56;5.75;;;4.82;;
7375;SDS011;3728;42.266;24.944;2022-08-07T18:28:46;7.95;;;6.63;;
7375;SDS011;3728;42.266;24.944;2022-08-07T18:40:49;7.60;;;6.55;;
7375;SDS011;3728;42.266;24.944;2022-08-07T18:52:45;7.30;;;6.60;;
7375;SDS011;3728;42.266;24.944;2022-08-07T19:08:43;11.23;;;8.68;;
7375;SDS011;3728;42.266;24.944;2022-08-07T19:11:16;7.88;;;6.13;;
7375;SDS011;3728;42.266;24.944;2022-08-07T19:14:15;6.45;;;5.78;;
7375;SDS011;3728;42.266;24.944;2022-08-07T19:16:52;9.40;;;7.50;;
7375;SDS011;3728;42.266;24.944;2022-08-07T19:19:44;11.68;;;6.45;;
7375;SDS011;3728;42.266;24.944;2022-08-07T19:22:27;6.45;;;5.72;;
7375;SDS011;3728;42.266;24.944;2022-08-07T19:25:03;8.07;;;5.90;;
7375;SDS011;3728;42.266;24.944;2022-08-07T19:27:58;7.38;;;6.55;;
7375;SDS011;3728;42.266;24.944;2022-08-07T19:30:52;8.07;;;6.45;;
7375;SDS011;3728;42.266;24.944;2022-08-07T19:33:43;6.60;;;6.00;;
7375;SDS011;3728;42.266;24.944;2022-08-07T19:36:24;7.30;;;5.93;;
7375;SDS011;3728;42.266;24.944;2022-08-07T19:38:54;8.38;;;6.15;;
7375;SDS011;3728;42.266;24.944;2022-08-07T19:41:25;9.73;;;6.90;;
7375;SDS011;3728;42.266;24.944;2022-08-07T19:44:13;9.55;;;7.05;;
7375;SDS011;3728;42.266;24.944;2022-08-07T19:46:47;10.30;;;8.13;;
7375;SDS011;3728;42.266;24.944;2022-08-07T19:49:23;8.10;;;7.28;;
7375;SDS011;3728;42.266;24.944;2022-08-07T19:52:12;7.50;;;6.72;;
7375;SDS011;3728;42.266;24.944;2022-08-07T19:54:54;7.40;;;6.80;;
7375;SDS011;3728;42.266;24.944;2022-08-07T19:57:42;10.43;;;6.55;;
7375;SDS011;3728;42.266;24.944;2022-08-07T20:00:30;10.15;;;6.95;;
7375;SDS011;3728;42.266;24.944;2022-08-07T20:03:09;7.72;;;6.82;;
7375;SDS011;3728;42.266;24.944;2022-08-07T20:06:02;7.78;;;6.95;;
7375;SDS011;3728;42.266;24.944;2022-08-07T20:08:40;9.13;;;7.50;;
7375;SDS011;3728;42.266;24.944;2022-08-07T20:11:15;7.75;;;6.55;;
7375;SDS011;3728;42.266;24.944;2022-08-07T20:14:07;7.75;;;7.03;;
7375;SDS011;3728;42.266;24.944;2022-08-07T20:16:46;8.07;;;7.30;;
7375;SDS011;3728;42.266;24.944;2022-08-07T20:19:20;8.00;;;7.20;;
7375;SDS011;3728;42.266;24.944;2022-08-07T20:21:54;7.55;;;6.75;;
7375;SDS011;3728;42.266;24.944;2022-08-07T20:24:28;9.00;;;7.00;;
7375;SDS011;3728;42.266;24.944;2022-08-07T20:27:04;9.07;;;8.18;;
7375;SDS011;3728;42.266;24.944;2022-08-07T20:29:47;8.70;;;7.80;;
7375;SDS011;3728;42.266;24.944;2022-08-07T20:32:32;10.75;;;7.55;;
7375;SDS011;3728;42.266;24.944;2022-08-07T20:35:07;9.98;;;7.60;;
7375;SDS011;3728;42.266;24.944;2022-08-07T20:37:49;8.13;;;7.32;;
7375;SDS011;3728;42.266;24.944;2022-08-07T20:40:24;10.48;;;7.90;;
7375;SDS011;3728;42.266;24.944;2022-08-07T20:42:59;12.50;;;10.27;;
7375;SDS011;3728;42.266;24.944;2022-08-07T20:45:41;12.32;;;9.60;;
7375;SDS011;3728;42.266;24.944;2022-08-07T20:48:31;8.20;;;7.40;;
7375;SDS011;3728;42.266;24.944;2022-08-07T20:51:01;8.55;;;7.45;;
7375;SDS011;3728;42.266;24.944;2022-08-07T20:53:35;9.30;;;7.03;;
7375;SDS011;3728;42.266;24.944;2022-08-07T20:56:26;7.22;;;6.63;;
7375;SDS011;3728;42.266;24.944;2022-08-07T20:59:00;7.65;;;6.82;;
7375;SDS011;3728;42.266;24.944;2022-08-07T21:01:31;8.05;;;7.25;;
7375;SDS011;3728;42.266;24.944;2022-08-07T21:04:21;8.35;;;6.72;;
7375;SDS011;3728;42.266;24.944;2022-08-07T21:06:54;9.82;;;7.13;;
7375;SDS011;3728;42.266;24.944;2022-08-07T21:09:40;7.10;;;6.40;;
7375;SDS011;3728;42.266;24.944;2022-08-07T21:12:25;7.32;;;6.65;;
7375;SDS011;3728;42.266;24.944;2022-08-07T21:14:57;7.10;;;6.43;;